createdAt,value
2023-01-24T00:01:55.795Z,71.05
2023-01-24T00:06:28.197Z,70.69
2023-01-24T00:11:14.386Z,70.49
2023-01-24T00:15:47.298Z,70.46
2023-01-24T00:20:20.548Z,70.45
2023-01-24T00:24:53.902Z,70.33
2023-01-24T00:29:26.481Z,70.16
2023-01-24T00:33:59.580Z,70.26
2023-01-24T00:38:31.973Z,70.35
2023-01-24T00:43:04.499Z,70.26
2023-01-24T00:47:37.676Z,70.28
2023-01-24T00:52:04.770Z,70.21
2023-01-24T00:56:37.117Z,70.37
2023-01-24T01:01:09.812Z,70.03
2023-01-24T01:05:42.751Z,69.81
2023-01-24T01:10:13.871Z,70.12
2023-01-24T01:14:46.418Z,70.66
2023-01-24T01:19:18.634Z,69.98
2023-01-24T01:23:51.559Z,69.79
2023-01-24T01:28:24.121Z,69.86
2023-01-24T01:32:57.652Z,69.80
2023-01-24T01:37:30.355Z,69.33
2023-01-24T01:42:17.010Z,69.49
2023-01-24T01:46:49.826Z,70.11
2023-01-24T01:51:22.921Z,70.09
2023-01-24T01:55:57.674Z,70.08
2023-01-24T02:00:29.935Z,70.04
2023-01-24T02:05:01.252Z,69.86
2023-01-24T02:09:34.411Z,69.37
2023-01-24T02:14:07.841Z,69.37
2023-01-24T02:18:40.991Z,68.91
2023-01-24T02:23:13.347Z,68.98
2023-01-24T02:27:46.379Z,68.96
2023-01-24T02:32:17.356Z,68.85
2023-01-24T02:36:42.671Z,68.81
2023-01-24T02:41:15.696Z,68.37
2023-01-24T02:45:51.078Z,68.55
2023-01-24T02:50:19.066Z,68.53
2023-01-24T02:54:52.272Z,68.26
2023-01-24T02:59:24.710Z,68.23
2023-01-24T03:03:58.191Z,68.28
2023-01-24T03:08:30.594Z,68.23
2023-01-24T03:13:01.994Z,68.04
2023-01-24T03:17:32.980Z,67.97
2023-01-24T03:22:04.245Z,68.24
2023-01-24T03:26:35.421Z,69.28
2023-01-24T03:31:08.363Z,69.78
2023-01-24T03:35:40.775Z,69.93
2023-01-24T03:40:13.054Z,70.18
2023-01-24T03:44:45.965Z,70.62
2023-01-24T03:49:18.347Z,70.82
2023-01-24T03:53:50.576Z,71.29
2023-01-24T03:58:23.377Z,71.60
2023-01-24T04:02:57.129Z,71.74
2023-01-24T04:07:32.595Z,71.85
2023-01-24T04:11:59.677Z,71.82
2023-01-24T04:16:32.264Z,71.75
2023-01-24T04:20:57.735Z,71.51
2023-01-24T04:25:31.049Z,71.47
2023-01-24T04:30:03.372Z,71.56
2023-01-24T04:34:36.788Z,71.64
2023-01-24T04:39:23.140Z,71.79
2023-01-24T04:43:54.073Z,71.97
2023-01-24T04:48:26.386Z,72.09
2023-01-24T04:57:59.460Z,71.91
2023-01-24T05:07:27.681Z,72.45
2023-01-24T05:12:03.013Z,72.57
2023-01-24T05:16:50.435Z,72.73
2023-01-24T05:21:28.957Z,72.69
2023-01-24T05:26:07.391Z,72.79
2023-01-24T05:30:48.461Z,72.81
2023-01-24T05:35:28.775Z,72.89
2023-01-24T05:40:08.231Z,73.10
2023-01-24T05:44:49.387Z,73.19
2023-01-24T05:49:36.128Z,73.23
2023-01-24T05:54:09.337Z,73.43
2023-01-24T05:58:36.277Z,73.50
2023-01-24T06:03:13.225Z,73.58
2023-01-24T06:07:50.582Z,73.76
2023-01-24T06:12:22.476Z,73.96
2023-01-24T06:16:59.236Z,74.25
2023-01-24T06:21:34.118Z,74.37
2023-01-24T06:26:09.776Z,74.51
2023-01-24T06:30:43.912Z,74.53
2023-01-24T06:35:22.634Z,74.52
2023-01-24T06:39:56.793Z,74.61
2023-01-24T06:44:36.288Z,74.61
2023-01-24T06:53:42.577Z,74.64
2023-01-24T06:58:11.151Z,74.70
2023-01-24T07:02:46.164Z,74.81
2023-01-24T07:07:21.813Z,74.69
2023-01-24T07:12:10.969Z,74.77
2023-01-24T07:16:48.762Z,74.91
2023-01-24T07:21:19.993Z,74.94
2023-01-24T07:25:56.426Z,75.00
2023-01-24T07:30:30.101Z,74.84
2023-01-24T07:34:50.641Z,74.91
2023-01-24T07:39:37.725Z,75.17
2023-01-24T07:44:12.237Z,75.29
2023-01-24T07:49:17.862Z,75.38
2023-01-24T07:53:56.641Z,75.59
2023-01-24T07:58:32.200Z,75.69
2023-01-24T08:03:01.274Z,75.73
2023-01-24T08:07:40.094Z,75.69
2023-01-24T08:12:12.579Z,75.61
2023-01-24T08:16:45.176Z,75.53
2023-01-24T08:21:25.613Z,75.47
2023-01-24T08:25:57.833Z,75.59
2023-01-24T08:30:30.822Z,75.48
2023-01-24T08:34:56.913Z,75.54
2023-01-24T08:39:48.589Z,75.56
2023-01-24T08:44:12.148Z,75.43
2023-01-24T08:48:44.656Z,75.50
2023-01-24T08:53:11.815Z,75.61
2023-01-24T08:57:44.797Z,75.53
2023-01-24T09:02:17.431Z,75.54
2023-01-24T09:07:04.233Z,75.33
2023-01-24T09:11:36.458Z,75.35
2023-01-24T09:16:08.011Z,75.39
2023-01-24T09:20:40.287Z,75.34
2023-01-24T09:25:12.939Z,75.44
2023-01-24T09:29:45.303Z,75.57
2023-01-24T09:34:18.331Z,75.59
2023-01-24T09:39:04.533Z,75.61
2023-01-24T09:43:44.509Z,75.72
2023-01-24T09:48:19.501Z,75.88
2023-01-24T09:52:52.115Z,75.89
2023-01-24T09:57:38.289Z,75.96
2023-01-24T10:02:11.239Z,75.93
2023-01-24T10:06:46.817Z,75.92
2023-01-24T10:11:24.588Z,75.80
2023-01-24T10:16:28.311Z,75.77
2023-01-24T10:20:58.894Z,75.96
2023-01-24T10:25:34.203Z,76.01
2023-01-24T10:30:09.294Z,76.00
2023-01-24T10:34:37.882Z,76.14
2023-01-24T10:39:10.519Z,76.04
2023-01-24T10:43:45.650Z,75.94
2023-01-24T10:48:37.868Z,76.11
2023-01-24T10:53:15.701Z,76.07
2023-01-24T10:58:00.569Z,76.14
2023-01-24T11:02:33.685Z,76.17
2023-01-24T11:07:09.518Z,76.12
2023-01-24T11:11:36.998Z,75.95
2023-01-24T11:16:04.907Z,75.77
2023-01-24T11:20:40.025Z,75.76
2023-01-24T11:25:09.211Z,75.78
2023-01-24T11:29:58.611Z,75.85
2023-01-24T11:34:32.781Z,75.80
2023-01-24T11:39:08.330Z,75.80
2023-01-24T11:43:34.682Z,75.73
2023-01-24T11:48:02.434Z,75.76
2023-01-24T11:52:59.375Z,75.70
2023-01-24T11:57:34.895Z,75.68
2023-01-24T12:02:13.995Z,75.70
2023-01-24T12:06:45.873Z,75.71
2023-01-24T12:11:36.373Z,75.85
2023-01-24T12:16:18.749Z,75.77
2023-01-24T12:21:03.571Z,75.75
2023-01-24T12:25:36.017Z,75.66
2023-01-24T12:30:14.646Z,75.83
2023-01-24T12:34:50.804Z,75.81
2023-01-24T12:39:24.597Z,75.77
2023-01-24T12:43:51.051Z,75.62
2023-01-24T12:48:23.502Z,75.57
2023-01-24T12:53:36.019Z,75.53
2023-01-24T12:58:13.660Z,75.44
2023-01-24T13:02:44.473Z,75.68
2023-01-24T13:07:23.640Z,75.74
2023-01-24T13:12:07.155Z,75.86
2023-01-24T13:16:40.374Z,75.96
2023-01-24T13:21:12.625Z,76.04
2023-01-24T13:25:46.698Z,76.11
2023-01-24T13:30:25.462Z,76.00
2023-01-24T13:34:58.140Z,76.04
2023-01-24T13:39:31.120Z,75.97
2023-01-24T13:44:28.657Z,75.78
2023-01-24T13:49:22.172Z,75.60
2023-01-24T13:53:48.508Z,75.58
2023-01-24T13:58:41.058Z,75.55
2023-01-24T14:03:12.160Z,75.49
2023-01-24T14:07:45.542Z,75.48
2023-01-24T14:12:18.213Z,75.49
2023-01-24T14:16:50.091Z,75.47
2023-01-24T14:21:26.503Z,75.88
2023-01-24T14:26:03.099Z,75.54
2023-01-24T14:30:41.561Z,75.52
2023-01-24T14:35:12.839Z,76.03
2023-01-24T14:40:04.693Z,75.56
2023-01-24T14:44:40.046Z,75.64
2023-01-24T14:49:13.171Z,75.94
2023-01-24T14:53:44.621Z,76.10
2023-01-24T14:58:23.419Z,76.24
2023-01-24T15:02:57.474Z,76.50
2023-01-24T15:07:28.596Z,76.58
2023-01-24T15:12:04.368Z,76.71
2023-01-24T15:16:37.530Z,76.80
2023-01-24T15:21:10.380Z,76.94
2023-01-24T15:25:43.321Z,76.98
2023-01-24T15:30:14.218Z,77.00
2023-01-24T15:34:47.071Z,76.96
2023-01-24T15:39:17.933Z,77.06
2023-01-24T15:44:08.707Z,77.11
2023-01-24T15:48:47.512Z,77.25
2023-01-24T15:53:23.126Z,77.36
2023-01-24T15:57:44.618Z,77.41
2023-01-24T16:02:17.672Z,77.46
2023-01-24T16:06:44.664Z,77.53
2023-01-24T16:11:10.239Z,77.64
2023-01-24T16:15:43.623Z,77.71
2023-01-24T16:20:19.471Z,77.83
2023-01-24T16:24:52.232Z,77.82
2023-01-24T16:29:25.333Z,77.75
2023-01-24T16:33:58.216Z,77.76
2023-01-24T16:38:26.379Z,77.81
2023-01-24T16:42:51.879Z,78.02
2023-01-24T16:47:23.829Z,78.09
2023-01-24T16:51:56.248Z,78.17
2023-01-24T16:56:29.318Z,78.22
2023-01-24T17:01:21.021Z,78.41
2023-01-24T17:05:53.128Z,78.44
2023-01-24T17:10:25.428Z,78.47
2023-01-24T17:14:58.585Z,78.45
2023-01-24T17:19:31.403Z,78.52
2023-01-24T17:24:04.113Z,78.47
2023-01-24T17:28:28.021Z,78.50
2023-01-24T17:33:15.322Z,78.44
2023-01-24T17:37:40.511Z,78.46
2023-01-24T17:42:19.201Z,78.54
2023-01-24T17:47:05.895Z,78.63
2023-01-24T17:51:38.774Z,78.74
2023-01-24T17:56:11.521Z,78.63
2023-01-24T18:00:44.883Z,78.66
2023-01-24T18:05:12.251Z,78.60
2023-01-24T18:09:59.175Z,78.68
2023-01-24T18:14:32.142Z,78.73
2023-01-24T18:19:18.400Z,78.77
2023-01-24T18:28:51.657Z,78.85
2023-01-24T18:33:23.951Z,78.88
2023-01-24T18:37:56.404Z,79.01
2023-01-24T18:42:29.471Z,79.17
2023-01-24T18:47:04.920Z,79.17
2023-01-24T18:51:38.090Z,79.29
2023-01-24T18:56:10.970Z,79.37
2023-01-24T19:00:43.728Z,79.49
2023-01-24T19:05:16.673Z,79.54
2023-01-24T19:10:03.224Z,79.74
2023-01-24T19:14:36.529Z,79.82
2023-01-24T19:19:09.034Z,79.79
2023-01-24T19:23:41.991Z,79.83
2023-01-24T19:28:14.295Z,79.88
2023-01-24T19:32:41.644Z,79.97
2023-01-24T19:37:14.265Z,80.07
2023-01-24T19:41:44.181Z,80.08
2023-01-24T19:46:20.017Z,80.01
2023-01-24T19:50:52.855Z,79.95
2023-01-24T19:55:23.693Z,79.89
2023-01-24T19:59:56.515Z,79.93
2023-01-24T20:04:31.211Z,79.94
2023-01-24T20:09:08.689Z,80.03
2023-01-24T20:13:40.791Z,80.01
2023-01-24T20:18:13.617Z,80.07
2023-01-24T20:22:45.778Z,80.11
2023-01-24T20:27:18.815Z,80.23
2023-01-24T20:31:52.094Z,80.29
2023-01-24T20:36:45.894Z,80.34
2023-01-24T20:41:18.288Z,80.49
2023-01-24T20:45:51.089Z,80.50
2023-01-24T20:50:23.724Z,80.40
2023-01-24T20:55:05.401Z,80.38
2023-01-24T20:59:38.588Z,80.39
2023-01-24T21:04:52.396Z,80.44
2023-01-24T21:09:19.650Z,80.48
2023-01-24T21:13:52.660Z,80.50
2023-01-24T21:18:25.714Z,80.49
2023-01-24T21:22:58.539Z,80.49
2023-01-24T21:27:31.700Z,80.52
2023-01-24T21:32:03.118Z,80.53
2023-01-24T21:36:35.817Z,80.55
2023-01-24T21:41:06.669Z,80.76
2023-01-24T21:45:38.293Z,80.80
2023-01-24T21:50:11.419Z,80.76
2023-01-24T21:54:43.966Z,80.84
2023-01-24T21:59:22.749Z,80.93
2023-01-24T22:03:47.536Z,80.99
2023-01-24T22:08:20.371Z,81.09
2023-01-24T22:12:45.515Z,81.01
2023-01-24T22:17:12.588Z,81.11
2023-01-24T22:21:44.914Z,81.25
2023-01-24T22:26:22.763Z,81.33
2023-01-24T22:30:54.475Z,81.34
2023-01-24T22:35:27.267Z,81.37
2023-01-24T22:39:59.573Z,81.44
2023-01-24T22:44:46.649Z,81.53
2023-01-24T22:49:20.038Z,81.65
2023-01-24T22:53:53.174Z,81.66
2023-01-24T22:58:20.045Z,81.65
2023-01-24T23:02:44.198Z,81.68
2023-01-24T23:07:11.502Z,81.86
2023-01-24T23:11:56.446Z,81.99
2023-01-24T23:16:32.499Z,81.91
2023-01-24T23:21:03.795Z,81.89
2023-01-24T23:25:36.460Z,81.86
2023-01-24T23:30:07.038Z,81.80
2023-01-24T23:34:42.612Z,81.79
2023-01-24T23:39:10.466Z,81.83
2023-01-24T23:43:43.290Z,81.86
2023-01-24T23:53:03.918Z,81.86
2023-01-24T23:57:37.303Z,81.86
